createdAt,value
2023-03-21T00:00:06.356Z,27.63
2023-03-21T00:04:06.647Z,27.62
2023-03-21T00:08:06.724Z,27.59
2023-03-21T00:12:06.823Z,27.62
2023-03-21T00:16:17.428Z,27.60
2023-03-21T00:20:07.900Z,27.59
2023-03-21T00:24:06.880Z,27.60
2023-03-21T00:28:08.585Z,27.60
2023-03-21T00:32:06.951Z,27.57
2023-03-21T00:36:07.141Z,27.57
2023-03-21T00:40:10.722Z,27.56
2023-03-21T00:44:08.207Z,27.56
2023-03-21T00:48:07.432Z,27.56
2023-03-21T00:52:38.164Z,27.53
2023-03-21T00:56:08.143Z,27.54
2023-03-21T01:00:07.146Z,27.56
2023-03-21T01:04:07.391Z,27.53
2023-03-21T01:08:20.698Z,27.52
2023-03-21T01:12:08.542Z,27.52
2023-03-21T01:16:07.478Z,27.52
2023-03-21T01:20:07.636Z,27.49
2023-03-21T01:24:07.903Z,27.50
2023-03-21T01:28:07.961Z,27.50
2023-03-21T01:32:08.176Z,27.49
2023-03-21T01:36:13.001Z,27.49
2023-03-21T01:40:09.346Z,27.48
2023-03-21T01:44:08.437Z,27.49
2023-03-21T01:48:08.550Z,27.48
2023-03-21T01:52:14.025Z,27.46
2023-03-21T01:56:09.817Z,27.46
2023-03-21T02:00:08.619Z,27.46
2023-03-21T02:04:08.825Z,27.45
2023-03-21T02:08:08.978Z,27.42
2023-03-21T02:12:09.214Z,27.46
2023-03-21T02:16:09.432Z,27.45
2023-03-21T02:20:09.609Z,27.46
2023-03-21T02:24:09.919Z,27.43
2023-03-21T02:28:10.038Z,27.45
2023-03-21T02:32:20.366Z,27.43
2023-03-21T02:36:14.225Z,27.41
2023-03-21T02:40:10.028Z,27.43
2023-03-21T02:44:09.871Z,27.42
2023-03-21T02:48:12.166Z,27.43
2023-03-21T02:52:18.598Z,27.41
2023-03-21T02:56:10.922Z,27.38
2023-03-21T03:00:16.087Z,27.38
2023-03-21T03:04:10.836Z,27.41
2023-03-21T03:08:09.764Z,27.41
2023-03-21T03:12:09.710Z,27.43
2023-03-21T03:16:09.709Z,27.38
2023-03-21T03:20:16.234Z,27.38
2023-03-21T03:24:10.606Z,27.36
2023-03-21T03:28:09.581Z,27.36
2023-03-21T03:32:09.646Z,27.35
2023-03-21T03:36:14.807Z,27.35
2023-03-21T03:40:10.512Z,27.35
2023-03-21T03:44:09.460Z,27.35
2023-03-21T03:48:09.458Z,27.36
2023-03-21T03:52:09.410Z,27.36
2023-03-21T03:56:09.409Z,27.35
2023-03-21T04:00:09.313Z,27.32
2023-03-21T04:04:13.207Z,27.33
2023-03-21T04:08:09.274Z,27.31
2023-03-21T04:12:09.242Z,27.29
2023-03-21T04:16:09.200Z,27.31
2023-03-21T04:20:13.916Z,27.31
2023-03-21T04:24:10.251Z,27.31
2023-03-21T04:28:09.190Z,27.32
2023-03-21T04:32:09.277Z,27.29
2023-03-21T04:36:09.198Z,27.26
2023-03-21T04:40:09.154Z,27.29
2023-03-21T04:44:09.060Z,27.29
2023-03-21T04:48:09.127Z,27.29
2023-03-21T04:52:09.013Z,27.29
2023-03-21T04:56:09.023Z,27.28
2023-03-21T05:00:08.904Z,27.26
2023-03-21T05:04:08.923Z,27.24
2023-03-21T05:08:08.927Z,27.21
2023-03-21T05:12:08.871Z,27.16
2023-03-21T05:16:08.861Z,27.11
2023-03-21T05:20:08.807Z,27.05
2023-03-21T05:24:08.718Z,27.06
2023-03-21T05:28:08.726Z,27.04
2023-03-21T05:32:08.724Z,27.01
2023-03-21T05:36:08.674Z,27.04
2023-03-21T05:40:08.913Z,27.04
2023-03-21T05:44:08.504Z,27.06
2023-03-21T05:48:08.592Z,27.11
2023-03-21T05:52:08.508Z,27.11
2023-03-21T05:56:08.496Z,27.14
2023-03-21T06:00:08.502Z,27.11
2023-03-21T06:04:08.442Z,27.14
2023-03-21T06:08:08.538Z,27.15
2023-03-21T06:12:08.472Z,27.15
2023-03-21T06:16:08.284Z,27.15
2023-03-21T06:20:08.234Z,27.14
2023-03-21T06:24:08.171Z,27.15
2023-03-21T06:28:08.231Z,27.15
2023-03-21T06:32:08.124Z,27.15
2023-03-21T06:36:09.042Z,27.16
2023-03-21T06:40:08.141Z,27.16
2023-03-21T06:44:08.661Z,27.14
2023-03-21T06:48:09.464Z,27.18
2023-03-21T06:52:08.598Z,27.24
2023-03-21T06:56:08.415Z,27.15
2023-03-21T07:00:08.403Z,26.94
2023-03-21T07:04:08.285Z,26.75
2023-03-21T07:08:08.285Z,26.58
2023-03-21T07:12:08.203Z,26.60
2023-03-21T07:16:08.236Z,26.68
2023-03-21T07:20:08.166Z,26.78
2023-03-21T07:24:08.086Z,26.87
2023-03-21T07:28:08.066Z,26.91
2023-03-21T07:32:08.018Z,27.01
2023-03-21T07:36:08.042Z,27.04
2023-03-21T07:40:07.969Z,27.11
2023-03-21T07:44:07.898Z,27.12
2023-03-21T07:48:07.938Z,27.11
2023-03-21T07:52:07.928Z,27.14
2023-03-21T07:56:07.795Z,27.11
2023-03-21T08:00:07.788Z,27.09
2023-03-21T08:04:07.753Z,27.12
2023-03-21T08:08:07.737Z,27.12
2023-03-21T08:12:07.672Z,27.11
2023-03-21T08:16:07.744Z,27.12
2023-03-21T08:20:07.719Z,27.16
2023-03-21T08:24:07.849Z,27.24
2023-03-21T08:28:07.871Z,27.25
2023-03-21T08:32:08.501Z,27.25
2023-03-21T08:36:08.423Z,27.26
2023-03-21T08:40:08.236Z,27.45
2023-03-21T08:44:08.184Z,27.62
2023-03-21T08:48:09.460Z,27.72
2023-03-21T08:52:08.110Z,27.83
2023-03-21T08:56:08.061Z,27.86
2023-03-21T09:00:08.016Z,27.93
2023-03-21T09:04:08.161Z,28.03
2023-03-21T09:08:08.007Z,28.03
2023-03-21T09:12:08.088Z,28.05
2023-03-21T09:16:08.056Z,28.01
2023-03-21T09:20:08.124Z,28.08
2023-03-21T09:24:08.163Z,28.14
2023-03-21T09:28:08.286Z,27.99
2023-03-21T09:32:08.462Z,27.38
2023-03-21T09:36:08.621Z,26.80
2023-03-21T09:40:08.680Z,26.36
2023-03-21T09:44:08.751Z,25.95
2023-03-21T09:48:08.890Z,26.09
2023-03-21T09:52:09.008Z,26.34
2023-03-21T09:56:09.134Z,26.67
2023-03-21T10:00:09.156Z,26.91
2023-03-21T10:04:09.323Z,27.11
2023-03-21T10:08:09.281Z,27.25
2023-03-21T10:12:09.272Z,27.41
2023-03-21T10:16:09.684Z,27.52
2023-03-21T10:20:11.567Z,27.54
2023-03-21T10:24:09.234Z,27.64
2023-03-21T10:28:09.110Z,27.70
2023-03-21T10:32:09.379Z,27.69
2023-03-21T10:36:09.073Z,27.76
2023-03-21T10:40:08.987Z,27.87
2023-03-21T10:44:09.730Z,27.96
2023-03-21T10:48:09.024Z,28.00
2023-03-21T10:52:09.717Z,28.08
2023-03-21T10:56:09.209Z,28.11
2023-03-21T11:00:08.808Z,28.17
2023-03-21T11:04:08.760Z,28.15
2023-03-21T11:08:08.708Z,28.07
2023-03-21T11:12:08.680Z,28.01
2023-03-21T11:16:08.698Z,28.05
2023-03-21T11:20:08.636Z,28.03
2023-03-21T11:24:08.676Z,28.13
2023-03-21T11:28:08.531Z,28.18
2023-03-21T11:32:08.531Z,28.22
2023-03-21T11:36:08.498Z,28.25
2023-03-21T11:40:08.472Z,28.20
2023-03-21T11:44:08.431Z,28.20
2023-03-21T11:48:08.487Z,28.28
2023-03-21T11:52:08.692Z,28.32
2023-03-21T11:56:08.829Z,28.32
2023-03-21T12:00:08.958Z,28.35
2023-03-21T12:04:08.954Z,28.38
2023-03-21T12:08:08.881Z,28.35
2023-03-21T12:12:09.145Z,28.32
2023-03-21T12:16:08.914Z,28.32
2023-03-21T12:20:08.791Z,28.35
2023-03-21T12:24:08.719Z,28.38
2023-03-21T12:28:08.735Z,28.38
2023-03-21T12:32:08.773Z,28.32
2023-03-21T12:36:09.234Z,28.31
2023-03-21T12:40:08.683Z,28.34
2023-03-21T12:44:08.666Z,28.34
2023-03-21T12:48:08.890Z,28.32
2023-03-21T12:52:08.688Z,28.34
2023-03-21T12:56:08.715Z,28.32
2023-03-21T13:00:08.669Z,28.34
2023-03-21T13:04:08.768Z,28.38
2023-03-21T13:08:08.655Z,28.38
2023-03-21T13:12:08.623Z,28.41
2023-03-21T13:16:08.600Z,28.40
2023-03-21T13:20:08.640Z,28.40
2023-03-21T13:24:08.560Z,28.41
2023-03-21T13:28:08.625Z,28.38
2023-03-21T13:32:08.661Z,28.42
2023-03-21T13:36:08.803Z,28.44
2023-03-21T13:40:08.647Z,28.44
2023-03-21T13:44:08.665Z,28.41
2023-03-21T13:48:08.736Z,28.41
2023-03-21T13:52:08.761Z,28.42
2023-03-21T13:56:08.677Z,28.45
2023-03-21T14:00:08.705Z,28.50
2023-03-21T14:04:08.718Z,28.51
2023-03-21T14:08:15.706Z,28.54
2023-03-21T14:12:09.845Z,28.54
2023-03-21T14:16:08.798Z,28.52
2023-03-21T14:20:10.773Z,28.55
2023-03-21T14:24:08.779Z,28.56
2023-03-21T14:28:08.770Z,28.54
2023-03-21T14:32:08.663Z,28.47
2023-03-21T14:36:08.684Z,28.47
2023-03-21T14:40:08.662Z,28.42
2023-03-21T14:44:08.552Z,28.44
2023-03-21T14:48:08.586Z,28.41
2023-03-21T14:52:08.465Z,28.41
2023-03-21T14:56:08.509Z,28.44
2023-03-21T15:00:08.435Z,28.44
2023-03-21T15:04:08.364Z,28.42
2023-03-21T15:08:08.344Z,28.41
2023-03-21T15:12:08.344Z,28.41
2023-03-21T15:16:08.666Z,28.42
2023-03-21T15:23:28.297Z,28.40
2023-03-21T15:27:28.343Z,28.42
2023-03-21T15:31:28.268Z,28.40
2023-03-21T15:35:28.188Z,28.40
2023-03-21T15:39:28.163Z,28.44
2023-03-21T15:43:28.181Z,28.48
2023-03-21T15:47:28.090Z,28.51
2023-03-21T15:51:28.507Z,28.52
2023-03-21T15:55:28.052Z,28.50
2023-03-21T15:59:28.128Z,28.47
2023-03-21T16:03:28.066Z,28.45
2023-03-21T16:07:27.957Z,28.40
2023-03-21T16:11:27.884Z,28.35
2023-03-21T16:15:27.913Z,28.34
2023-03-21T16:19:27.857Z,28.31
2023-03-21T16:23:27.844Z,28.31
2023-03-21T16:27:27.762Z,28.30
2023-03-21T16:31:27.882Z,28.30
2023-03-21T16:35:27.769Z,28.25
2023-03-21T16:39:27.661Z,28.21
2023-03-21T16:43:28.085Z,28.21
2023-03-21T16:47:27.629Z,28.18
2023-03-21T16:51:27.582Z,28.17
2023-03-21T16:55:27.497Z,28.18
2023-03-21T16:59:27.486Z,28.14
2023-03-21T17:03:27.489Z,28.11
2023-03-21T17:07:27.403Z,28.08
2023-03-21T17:11:27.465Z,28.05
2023-03-21T17:15:27.336Z,28.04
2023-03-21T17:19:27.316Z,28.03
2023-03-21T17:23:27.253Z,28.04
2023-03-21T17:27:27.261Z,28.01
2023-03-21T17:31:27.252Z,28.00
2023-03-21T17:35:27.191Z,27.99
2023-03-21T17:39:27.167Z,27.94
2023-03-21T17:43:27.081Z,27.94
2023-03-21T17:47:27.041Z,27.94
2023-03-21T17:51:27.119Z,27.90
2023-03-21T17:55:27.053Z,27.89
2023-03-21T17:59:26.963Z,27.90
2023-03-21T18:03:26.984Z,27.87
2023-03-21T18:08:01.919Z,27.87
2023-03-21T18:11:28.017Z,27.87
2023-03-21T18:15:30.220Z,27.86
2023-03-21T18:19:26.980Z,27.86
2023-03-21T18:23:26.967Z,27.84
2023-03-21T18:27:26.916Z,27.84
2023-03-21T18:31:27.337Z,27.83
2023-03-21T18:35:26.835Z,27.79
2023-03-21T18:39:26.793Z,27.80
2023-03-21T18:44:01.477Z,27.79
2023-03-21T18:47:28.166Z,27.77
2023-03-21T18:51:26.701Z,27.79
2023-03-21T18:55:44.494Z,27.74
2023-03-21T18:59:27.599Z,27.70
2023-03-21T19:03:35.713Z,27.62
2023-03-21T19:07:27.526Z,27.57
2023-03-21T19:11:26.462Z,27.54
2023-03-21T19:15:26.481Z,27.49
2023-03-21T19:19:26.435Z,27.45
2023-03-21T19:23:39.895Z,27.33
2023-03-21T19:27:27.520Z,27.38
2023-03-21T19:31:26.509Z,27.36
2023-03-21T19:35:27.137Z,27.38
2023-03-21T19:39:26.659Z,27.42
2023-03-21T19:43:32.813Z,27.48
2023-03-21T19:47:27.841Z,27.49
2023-03-21T19:51:29.766Z,27.49
2023-03-21T19:55:27.616Z,27.52
2023-03-21T19:59:26.686Z,27.53
2023-03-21T20:03:26.667Z,27.54
2023-03-21T20:07:26.668Z,27.53
2023-03-21T20:11:26.627Z,27.54
2023-03-21T20:15:29.750Z,27.56
2023-03-21T20:19:26.494Z,27.56
2023-03-21T20:23:26.483Z,27.54
2023-03-21T20:27:26.642Z,27.53
2023-03-21T20:31:26.422Z,27.56
2023-03-21T20:36:05.406Z,27.53
2023-03-21T20:39:29.860Z,27.54
2023-03-21T20:44:14.361Z,27.53
2023-03-21T20:47:27.261Z,27.52
2023-03-21T20:52:35.937Z,27.49
2023-03-21T20:55:27.202Z,27.50
2023-03-21T20:59:28.123Z,27.49
2023-03-21T21:03:26.115Z,27.50
2023-03-21T21:07:26.098Z,27.49
2023-03-21T21:15:27.005Z,27.50
2023-03-21T21:19:26.143Z,27.48
2023-03-21T21:23:25.918Z,27.46
2023-03-21T21:27:26.075Z,27.45
2023-03-21T21:31:26.232Z,27.46
2023-03-21T21:35:26.372Z,27.48
2023-03-21T21:39:26.553Z,27.45
2023-03-21T21:43:26.571Z,27.45
2023-03-21T21:47:26.712Z,27.45
2023-03-21T21:51:26.821Z,27.45
2023-03-21T21:55:26.978Z,27.43
2023-03-21T21:59:27.106Z,27.45
2023-03-21T22:03:27.746Z,27.43
2023-03-21T22:07:27.506Z,27.43
2023-03-21T22:11:27.616Z,27.43
2023-03-21T22:15:28.140Z,27.42
2023-03-21T22:19:27.935Z,27.39
2023-03-21T22:23:28.100Z,27.42
2023-03-21T22:27:28.303Z,27.41
2023-03-21T22:31:28.509Z,27.38
2023-03-21T22:35:28.722Z,27.38
2023-03-21T22:39:28.891Z,27.36
2023-03-21T22:43:29.064Z,27.38
2023-03-21T22:47:29.258Z,27.36
2023-03-21T22:51:29.417Z,27.36
2023-03-21T22:55:29.633Z,27.36
2023-03-21T22:59:29.843Z,27.36
2023-03-21T23:03:30.013Z,27.36
2023-03-21T23:07:30.252Z,27.33
2023-03-21T23:11:30.453Z,27.33
2023-03-21T23:15:30.426Z,27.32
2023-03-21T23:19:30.407Z,27.32
2023-03-21T23:23:30.323Z,27.31
2023-03-21T23:27:30.293Z,27.29
2023-03-21T23:31:30.301Z,27.31
2023-03-21T23:35:30.242Z,27.31
2023-03-21T23:39:30.221Z,27.31
2023-03-21T23:43:30.133Z,27.31
2023-03-21T23:47:30.133Z,27.31
2023-03-21T23:51:30.092Z,27.26
2023-03-21T23:55:30.247Z,27.31
2023-03-21T23:59:30.691Z,27.28
